LSZR/ACH METAR and TAF weather

Enter ICAO airport designator
Station Type Date Time Source
LSZR METAR 2020/01/24 09:20 UTC NOAA

LSZR 240920Z 10005KT 2800 BR OVC003 M02/M02 Q1026 NOSIG RMK F


Station Type Date Time Source
LSZR Decoded METAR 2020/01/24 09:20 UTC NOAA

Saint Gallen-Altenrhein, Switzerland (LSZR) 47-29-06N 009-33-43E
Jan 24, 2020 - 04:20 AM EST / 2020.01.24 0920 UTC
Wind: from the E (100 degrees) at 6 MPH (5 KT):0
Visibility: 1 mile(s):0
Sky conditions: overcast
Weather: mist
Temperature: 28 F (-2 C)
Windchill: 21 F (-6 C):1
Dew Point: 28 F (-2 C)
Relative Humidity: 100%
Pressure (altimeter): 30.30 in. Hg (1026 hPa)
ob: LSZR 240920Z 10005KT 2800 BR OVC003 M02/M02 Q1026 NOSIG RMK F
cycle: 9

Station Type Date Time Source
LSZR TAF 2014/12/22 20:03 UTC NOAA

TAF
AMD LSZR 222054Z 2220/2224 CNL

Example: see airport list